createdAt,value
2022-11-13T00:04:41.741Z,95.5
2022-11-13T00:09:47.929Z,95.5
2022-11-13T00:14:54.145Z,95.5
2022-11-13T00:20:00.342Z,95.5
2022-11-13T00:25:06.553Z,95.5
2022-11-13T00:30:17.866Z,95.5
2022-11-13T00:35:18.968Z,95.5
2022-11-13T00:40:25.182Z,95.5
2022-11-13T00:45:31.381Z,95.5
2022-11-13T00:50:37.590Z,95.5
2022-11-13T00:55:43.806Z,95.5
2022-11-13T01:00:50.010Z,95.5
2022-11-13T01:05:55.243Z,95.5
2022-11-13T01:11:01.453Z,95.5
2022-11-13T01:16:06.683Z,95.5
2022-11-13T01:21:12.888Z,95.5
2022-11-13T01:26:19.097Z,95.5
2022-11-13T01:31:25.307Z,96.0
2022-11-13T01:36:31.529Z,96.0
2022-11-13T01:41:37.730Z,96.0
2022-11-13T01:46:43.925Z,96.0
2022-11-13T01:51:50.144Z,96.0
2022-11-13T01:56:56.343Z,96.0
2022-11-13T02:02:02.640Z,96.0
2022-11-13T02:07:08.840Z,96.0
2022-11-13T02:12:14.976Z,96.0
2022-11-13T02:17:21.186Z,96.0
2022-11-13T02:22:27.391Z,96.0
2022-11-13T02:27:33.601Z,96.5
2022-11-13T02:32:39.806Z,96.0
2022-11-13T02:37:46.012Z,96.0
2022-11-13T02:42:52.216Z,96.0
2022-11-13T02:47:58.425Z,96.0
2022-11-13T02:53:04.629Z,96.0
2022-11-13T03:03:29.227Z,95.5
2022-11-13T03:08:22.282Z,95.5
2022-11-13T03:13:28.492Z,95.5
2022-11-13T03:18:33.719Z,95.5
2022-11-13T03:23:39.930Z,95.5
2022-11-13T03:28:46.142Z,95.5
2022-11-13T03:33:52.353Z,95.5
2022-11-13T03:38:57.571Z,95.5
2022-11-13T03:44:03.823Z,95.5
2022-11-13T03:49:10.005Z,95.5
2022-11-13T03:54:16.200Z,95.5
2022-11-13T03:59:22.407Z,95.5
2022-11-13T04:04:28.624Z,95.5
2022-11-13T04:09:34.820Z,95.0
2022-11-13T04:14:41.059Z,95.0
2022-11-13T04:19:47.230Z,95.0
2022-11-13T04:24:53.445Z,95.0
2022-11-13T04:29:59.644Z,94.5
2022-11-13T04:35:05.853Z,94.5
2022-11-13T04:40:12.062Z,95.0
2022-11-13T04:45:18.267Z,94.5
2022-11-13T04:50:24.484Z,94.5
2022-11-13T04:55:30.679Z,94.5
2022-11-13T05:00:36.893Z,94.5
2022-11-13T05:05:42.130Z,94.5
2022-11-13T05:10:48.337Z,94.5
2022-11-13T05:15:54.555Z,94.5
2022-11-13T05:21:00.750Z,94.5
2022-11-13T05:26:05.988Z,94.5
2022-11-13T05:31:12.193Z,94.5
2022-11-13T05:41:24.612Z,94.5
2022-11-13T05:46:30.832Z,94.5
2022-11-13T05:51:37.028Z,95.0
2022-11-13T05:56:43.239Z,95.0
2022-11-13T06:01:49.485Z,95.0
2022-11-13T06:06:55.735Z,95.0
2022-11-13T06:12:01.855Z,95.0
2022-11-13T06:17:08.076Z,95.0
2022-11-13T06:22:14.260Z,94.5
2022-11-13T06:27:20.474Z,94.5
2022-11-13T06:32:26.682Z,94.5
2022-11-13T06:37:34.840Z,94.5
2022-11-13T06:42:39.099Z,94.5
2022-11-13T06:47:45.310Z,94.5
2022-11-13T06:52:51.508Z,94.0
2022-11-13T06:57:57.716Z,94.0
2022-11-13T07:03:03.926Z,94.0
2022-11-13T07:08:10.130Z,94.0
2022-11-13T07:13:16.343Z,94.0
2022-11-13T07:18:24.190Z,94.0
2022-11-13T07:23:27.781Z,94.0
2022-11-13T07:28:33.018Z,94.0
2022-11-13T07:33:39.278Z,94.0
2022-11-13T07:38:45.438Z,94.0
2022-11-13T07:48:57.854Z,94.0
2022-11-13T07:54:04.057Z,94.5
2022-11-13T07:59:10.265Z,94.5
2022-11-13T08:04:16.479Z,94.5
2022-11-13T08:09:22.682Z,94.5
2022-11-13T08:14:28.883Z,94.5
2022-11-13T08:19:35.100Z,95.0
2022-11-13T08:24:41.302Z,95.0
2022-11-13T08:29:47.507Z,95.0
2022-11-13T08:34:53.716Z,95.0
2022-11-13T08:39:59.922Z,95.0
2022-11-13T08:45:06.129Z,95.0
2022-11-13T08:50:12.337Z,95.0
2022-11-13T08:55:18.544Z,95.0
2022-11-13T09:00:24.825Z,95.0
2022-11-13T09:05:30.963Z,95.0
2022-11-13T09:10:37.176Z,95.0
2022-11-13T09:15:43.374Z,95.0
2022-11-13T09:20:48.629Z,95.0
2022-11-13T09:25:54.816Z,95.0
2022-11-13T09:31:01.022Z,95.0
2022-11-13T09:36:07.244Z,95.0
2022-11-13T09:41:13.441Z,94.5
2022-11-13T09:46:19.652Z,94.5
2022-11-13T09:51:25.867Z,94.5
2022-11-13T09:56:32.060Z,94.0
2022-11-13T10:01:38.277Z,94.0
2022-11-13T10:06:44.541Z,93.5
2022-11-13T10:11:50.682Z,93.5
2022-11-13T10:16:56.893Z,93.0
2022-11-13T10:22:31.170Z,92.5
2022-11-13T10:27:09.315Z,91.5
2022-11-13T10:32:15.517Z,91.0
2022-11-13T10:37:21.736Z,90.5
2022-11-13T10:42:27.938Z,90.0
2022-11-13T10:48:02.716Z,89.5
2022-11-13T10:52:40.357Z,89.0
2022-11-13T10:57:47.174Z,88.5
2022-11-13T11:02:52.777Z,87.5
2022-11-13T11:07:58.048Z,87.0
2022-11-13T11:13:04.238Z,86.5
2022-11-13T11:18:09.475Z,86.0
2022-11-13T11:23:15.691Z,85.5
2022-11-13T11:28:21.898Z,85.0
2022-11-13T11:33:28.104Z,84.0
2022-11-13T11:38:34.459Z,83.5
2022-11-13T11:43:40.526Z,83.5
2022-11-13T11:48:46.733Z,83.0
2022-11-13T11:53:52.936Z,82.5
2022-11-13T11:58:59.151Z,82.0
2022-11-13T12:04:05.363Z,81.0
2022-11-13T12:09:11.566Z,80.5
2022-11-13T12:14:17.772Z,80.0
2022-11-13T12:19:23.982Z,79.0
2022-11-13T12:24:30.204Z,79.5
2022-11-13T12:29:36.395Z,79.0
2022-11-13T12:34:42.607Z,79.0
2022-11-13T12:39:48.814Z,78.5
2022-11-13T12:44:55.015Z,78.0
2022-11-13T12:50:01.228Z,77.5
2022-11-13T12:55:07.446Z,77.0
2022-11-13T13:00:13.649Z,77.0
2022-11-13T13:05:18.881Z,76.5
2022-11-13T13:10:25.102Z,76.0
2022-11-13T13:15:30.321Z,76.0
2022-11-13T13:20:36.544Z,76.0
2022-11-13T13:25:41.777Z,75.5
2022-11-13T13:30:47.983Z,75.5
2022-11-13T13:35:54.184Z,75.5
2022-11-13T13:41:00.396Z,75.5
2022-11-13T13:46:06.609Z,75.5
2022-11-13T13:51:12.812Z,75.0
2022-11-13T13:56:19.037Z,75.0
2022-11-13T14:01:25.269Z,75.0
2022-11-13T14:06:31.440Z,75.0
2022-11-13T14:11:37.648Z,75.0
2022-11-13T14:16:43.860Z,75.0
2022-11-13T14:21:50.077Z,75.0
2022-11-13T14:26:56.280Z,75.0
2022-11-13T14:32:02.488Z,75.0
2022-11-13T14:37:08.689Z,75.0
2022-11-13T14:42:14.894Z,74.5
2022-11-13T14:47:21.109Z,74.5
2022-11-13T14:52:27.318Z,74.5
2022-11-13T14:57:33.531Z,74.5
2022-11-13T15:02:39.736Z,74.5
2022-11-13T15:07:45.949Z,74.5
2022-11-13T15:12:51.182Z,74.5
2022-11-13T15:17:57.388Z,74.0
2022-11-13T15:23:02.627Z,74.0
2022-11-13T15:28:08.824Z,74.5
2022-11-13T15:33:15.044Z,74.5
2022-11-13T15:38:21.248Z,74.5
2022-11-13T15:43:27.756Z,75.0
2022-11-13T15:48:33.659Z,75.0
2022-11-13T15:53:39.877Z,75.5
2022-11-13T15:58:46.093Z,75.5
2022-11-13T16:03:52.308Z,76.0
2022-11-13T16:08:58.518Z,76.0
2022-11-13T16:14:04.724Z,76.5
2022-11-13T16:19:10.941Z,76.5
2022-11-13T16:24:19.905Z,77.0
2022-11-13T16:29:23.360Z,77.5
2022-11-13T16:34:29.572Z,77.5
2022-11-13T16:39:35.780Z,78.0
2022-11-13T16:44:41.985Z,78.5
2022-11-13T16:49:48.192Z,79.0
2022-11-13T16:54:54.403Z,79.0
2022-11-13T17:00:00.611Z,79.5
2022-11-13T17:05:06.856Z,80.0
2022-11-13T17:15:18.283Z,80.5
2022-11-13T17:20:23.533Z,81.0
2022-11-13T17:25:29.698Z,81.0
2022-11-13T17:30:35.910Z,81.0
2022-11-13T17:35:42.120Z,81.5
2022-11-13T17:40:48.323Z,82.0
2022-11-13T17:45:54.538Z,82.5
2022-11-13T17:51:00.743Z,83.0
2022-11-13T17:56:06.949Z,83.0
2022-11-13T18:01:13.207Z,83.5
2022-11-13T18:06:19.993Z,84.0
2022-11-13T18:11:25.569Z,84.5
2022-11-13T18:16:31.778Z,84.5
2022-11-13T18:21:37.984Z,84.5
2022-11-13T18:26:44.203Z,85.0
2022-11-13T18:31:50.404Z,84.5
2022-11-13T18:36:56.604Z,85.0
2022-11-13T18:42:02.821Z,85.0
2022-11-13T18:47:09.180Z,85.5
2022-11-13T18:52:15.243Z,86.0
2022-11-13T18:57:21.439Z,86.0
2022-11-13T19:02:27.652Z,86.0
2022-11-13T19:07:32.886Z,86.0
2022-11-13T19:12:39.102Z,86.0
2022-11-13T19:17:45.068Z,86.0
2022-11-13T19:22:50.537Z,86.5
2022-11-13T19:27:55.770Z,86.5
2022-11-13T19:33:01.977Z,87.0
2022-11-13T19:38:08.188Z,87.0
2022-11-13T19:43:14.392Z,87.0
2022-11-13T19:48:20.602Z,87.0
2022-11-13T19:53:26.806Z,87.5
2022-11-13T19:58:33.018Z,87.5
2022-11-13T20:03:39.218Z,88.0
2022-11-13T20:08:45.431Z,88.0
2022-11-13T20:13:51.638Z,88.0
2022-11-13T20:18:57.859Z,88.5
2022-11-13T20:24:04.056Z,89.0
2022-11-13T20:29:10.256Z,89.5
2022-11-13T20:34:16.473Z,90.0
2022-11-13T20:39:22.681Z,90.0
2022-11-13T20:44:27.903Z,90.0
2022-11-13T20:49:34.111Z,89.5
2022-11-13T20:54:40.319Z,89.5
2022-11-13T20:59:46.530Z,89.5
2022-11-13T21:04:52.749Z,89.5
2022-11-13T21:09:58.948Z,89.5
2022-11-13T21:15:04.184Z,89.5
2022-11-13T21:20:10.388Z,89.5
2022-11-13T21:25:15.619Z,90.0
2022-11-13T21:30:21.828Z,90.0
2022-11-13T21:35:28.038Z,90.0
2022-11-13T21:40:34.251Z,90.0
2022-11-13T21:45:40.452Z,90.0
2022-11-13T21:50:46.667Z,90.0
2022-11-13T21:55:52.874Z,90.0
2022-11-13T22:00:59.075Z,90.0
2022-11-13T22:06:05.285Z,90.0
2022-11-13T22:11:11.490Z,90.0
2022-11-13T22:16:17.695Z,89.5
2022-11-13T22:21:23.903Z,89.5
2022-11-13T22:26:30.114Z,89.5
2022-11-13T22:31:36.316Z,89.5
2022-11-13T22:36:42.528Z,89.5
2022-11-13T22:41:48.743Z,89.5
2022-11-13T22:46:54.936Z,90.0
2022-11-13T22:52:01.161Z,90.0
2022-11-13T22:57:07.354Z,90.0
2022-11-13T23:02:13.564Z,90.0
2022-11-13T23:07:19.861Z,90.0
2022-11-13T23:12:25.001Z,90.0
2022-11-13T23:17:31.210Z,90.0
2022-11-13T23:22:36.442Z,90.0
2022-11-13T23:27:42.659Z,90.0
2022-11-13T23:32:48.877Z,90.0
2022-11-13T23:37:55.079Z,90.0
2022-11-13T23:43:01.280Z,90.0
2022-11-13T23:53:13.687Z,90.0
2022-11-13T23:58:19.898Z,90.0
